Austin, MN (55912)

9:47 AM CDT on August 31, 2015 (GMT -0500)
Austin Municipal | | Change Station
CLOSE
Current Station
Airport
Location: Austin,
Elevation: 1230 ft
Nearby Weather Stations
Active Advisory: Special Statement

Elev 1230 ft 43.67 °N, 92.93 °W | Updated 31 minutes ago

Overcast
Overcast
68 °F
Feels Like 68 °F
N
12
Wind Variable Wind from South

Today
High -- | Low -- °F
--% Chance of Precip.
Yesterday
High -- | Low -- °F
Precip. -- in
6:34 AM 7:49 PM
Waning Gibbous, 95% visible
Pressure 29.99 in
Visibility 1.5 miles
Clouds Overcast 200 ft
Dew Point 66 °F
Humidity 94%
Rainfall 0.00 in
Snow Depth Not available.
UV 1 out of 12
Pollen 10.90 out of 12
Air Quality Not available.
Flu Activity Not available.
METAR KAUM 311416Z AUTO 19010KT 1 1/2SM BR OVC002 20/19 A2999 RMK AO2
Pressure 29.99 in
Visibility 1.5 miles
Clouds Overcast 200 ft
Dew Point 66 °F
Humidity 94%
Rainfall 0.00 in
Snow Depth Not available.
UV 1 out of 12
Pollen 10.90 out of 12
Air Quality Not available.
Flu Activity Not available.
METAR KAUM 311416Z AUTO 19010KT 1 1/2SM BR OVC002 20/19 A2999 RMK AO2

10-Day Weather Forecast

×

Almanac

Astronomy

Aug. 31, 2015 Rise Set
Actual Time
Civil Twilight
Nautical Twilight
Astronomical Twilight
Moon
Length of Visible Light
Length of Day
Tomorrow will be .
, % of the Moon is Illuminated

Today's Extremes

State Highs State Lows

Community

WunderPhotos

Upload Photos

1,851,254 photos uploaded!

WunderBlogs® & News

Nearby

Air Quality

  Air Quality AQ Index Pollutant
Not available.

Snow Depth

Station Depth Elevation

Earthquake Activity

City Distance Mag. Time & Date
Minimum magnitude displayed is 2.5.

Coastal Water Temperatures

Place Temperature

Stations

Nearby Weather Stations

Station Location Temp. Windchill Dew Point Humidity Wind Precip. Elev Updated Type
                   
Special Statement
Statement as of 9:03 AM CDT on August 31, 2015

... Patchy dense fog lingers but visibilities were improving...

Visibilities in the fog across much of the area were improving as
of 9 am. However visibilities remained below 1/2 mile in a few
locations... especially in the lower Wisconsin River Valley and on
some ridge tops and other higher elevation locations.

The fog will continue to lift and dissipate through 10 am. If
traveling this morning... remain alert for reduced and changing
visibilities due to the lingering fog.

Rrs


903 am CDT Mon Aug 31 2015

... Patchy dense fog lingers but visibilities were improving...

Visibilities in the fog across much of the area were improving as
of 9 am. However visibilities remained below 1/2 mile in a few
locations... especially in the lower Wisconsin River Valley and on
some ridge tops and other higher elevation locations.

The fog will continue to lift and dissipate through 10 am. If
traveling this morning... remain alert for reduced and changing
visibilities due to the lingering fog.

Rrs